»·PEaware :: N148WT KSNA-KCRQ

N148WT :: KSNA-KCRQ

FLIGHT INFORMATION

Flight Status: Arrived
Operator: Privately registered:
United States
More flights under this callsign
Pilot: Vlad D. (11271)
Aircraft: Unknown
(B60T)
More flights by this aircraft type
Origin: KSNA John Wayne-Orange Co
United States
Destination: KCRQ McClellan-Palomar
United States
More flights between these airports :: More routes between these airports
Route: +V25 PACIF V208 OCN
File this flight plan on PilotEdge
Remarks: IF short hop
Altitude:
(Current/Filed)
5,000ft
Speed:
(Current/Filed)
160kts
Departed: 18-May-16 10:17 AM
Arrived: 18-May-16 10:51 AM
Distance/Time
Traveled:
44nm/0:33
Distance/Time
To Go:
Arrived

Flight Plot

Page will automatically refresh every two minutes.


Map Options




Map Legend


Flown Route
Filed Route
Departure Airport
Arrival Airport
Navaid (VOR, NDB)
Fix

Horizontal Profiles

Position Reports

Time Latitude Longitude Heading Altitude Ground
Speed
18-May-16 09:36 33.670225 -117.874694 23 59ft 0kts
18-May-16 09:37 33.670225 -117.874694 23 59ft 0kts
18-May-16 09:38 33.670225 -117.874694 23 59ft 0kts
18-May-16 09:39 33.670225 -117.874694 23 59ft 0kts
18-May-16 09:40 33.670226 -117.874694 23 59ft 0kts
18-May-16 09:41 33.670226 -117.874694 23 59ft 0kts
18-May-16 09:42 33.670228 -117.874693 23 59ft 0kts
18-May-16 09:43 33.670232 -117.874691 23 59ft 0kts
18-May-16 09:44 33.670236 -117.874689 23 59ft 0kts
18-May-16 09:45 33.670239 -117.874687 23 59ft 0kts
18-May-16 09:46 33.670243 -117.874685 23 59ft 0kts
18-May-16 09:47 33.670246 -117.874683 23 59ft 0kts
18-May-16 09:48 33.670250 -117.874681 23 59ft 0kts
18-May-16 09:49 33.670254 -117.874680 23 59ft 0kts
18-May-16 09:50 33.670257 -117.874678 23 59ft 0kts
18-May-16 09:51 33.670260 -117.874676 23 59ft 0kts
18-May-16 09:52 33.670264 -117.874674 23 59ft 0kts
18-May-16 09:53 33.670268 -117.874672 23 59ft 0kts
18-May-16 09:54 33.670271 -117.874670 23 59ft 0kts
18-May-16 09:55 33.670275 -117.874669 23 59ft 0kts
18-May-16 09:56 33.670278 -117.874667 23 59ft 0kts
18-May-16 09:57 33.670282 -117.874665 23 59ft 0kts
18-May-16 09:58 33.670285 -117.874663 23 59ft 0kts
18-May-16 09:59 33.670289 -117.874661 22 59ft 0kts
18-May-16 10:00 33.670292 -117.874660 22 59ft 0kts
18-May-16 10:01 33.670296 -117.874658 22 59ft 0kts
18-May-16 10:02 33.670299 -117.874656 22 59ft 0kts
18-May-16 10:03 33.670303 -117.874654 22 59ft 0kts
18-May-16 10:04 33.670307 -117.874652 22 59ft 0kts
18-May-16 10:05 33.670310 -117.874650 22 59ft 0kts
18-May-16 10:06 33.670893 -117.873362 27 59ft 6kts
18-May-16 10:07 33.672462 -117.872399 26 59ft 6kts
18-May-16 10:08 33.673999 -117.871441 25 59ft 6kts
18-May-16 10:09 33.675541 -117.870510 24 59ft 6kts
18-May-16 10:10 33.677414 -117.869341 25 59ft 11kts
18-May-16 10:11 33.679372 -117.868130 28 59ft 4kts
18-May-16 10:12 33.680605 -117.867379 25 59ft 5kts
18-May-16 10:13 33.682005 -117.866284 103 59ft 7kts
18-May-16 10:14 33.681501 -117.865304 174 59ft 8kts
18-May-16 10:15 33.665294 -117.874905 203 510ft 139kts
18-May-16 10:16 33.628706 -117.880943 187 2022ft 135kts
18-May-16 10:17 33.592656 -117.885364 187 3986ft 129kts
18-May-16 10:18 33.553098 -117.890401 186 5984ft 151kts
18-May-16 10:19 33.507110 -117.897732 187 7006ft 199kts
18-May-16 10:20 33.449944 -117.901884 162 7005ft 201kts
18-May-16 10:21 33.404779 -117.867208 129 6997ft 193kts
18-May-16 10:22 33.367040 -117.821601 132 6996ft 193kts
18-May-16 10:23 33.328998 -117.780268 134 6994ft 177kts
18-May-16 10:24 33.293186 -117.740482 128 6996ft 173kts
18-May-16 10:25 33.274886 -117.690139 90 6994ft 165kts
18-May-16 10:26 33.269184 -117.635185 93 6759ft 175kts
18-May-16 10:27 33.261857 -117.577821 94 5315ft 167kts
18-May-16 10:28 33.255700 -117.531828 94 4970ft 109kts
18-May-16 10:29 33.250472 -117.491555 95 5002ft 139kts
18-May-16 10:30 33.243958 -117.444042 96 4995ft 147kts
18-May-16 10:31 33.238906 -117.394575 92 4987ft 154kts
18-May-16 10:32 33.234624 -117.343810 92 4999ft 157kts
18-May-16 10:33 33.230246 -117.289825 92 4999ft 167kts
18-May-16 10:34 33.225549 -117.233833 92 5001ft 171kts
18-May-16 10:35 33.224694 -117.176340 82 4996ft 170kts
18-May-16 10:36 33.228175 -117.120080 82 4995ft 168kts
18-May-16 10:37 33.231602 -117.064124 81 5000ft 168kts
18-May-16 10:38 33.234063 -117.010076 99 4960ft 148kts
18-May-16 10:39 33.205627 -116.980546 141 4989ft 134kts
18-May-16 10:40 33.179108 -116.958450 142 4994ft 144kts
18-May-16 10:41 33.149210 -116.963229 279 5098ft 114kts
18-May-16 10:42 33.153463 -116.999236 281 4089ft 137kts
18-May-16 10:43 33.157327 -117.045426 279 3471ft 130kts
18-May-16 10:44 33.157853 -117.088716 261 3521ft 139kts
18-May-16 10:45 33.149001 -117.141673 262 2905ft 171kts
18-May-16 10:46 33.141795 -117.195654 259 1862ft 120kts
18-May-16 10:47 33.136479 -117.229985 258 1007ft 97kts
18-May-16 10:48 33.131357 -117.260667 259 549ft 84kts
18-May-16 10:49 33.128289 -117.278999 229 303ft 2kts
18-May-16 10:50 33.127761 -117.279668 225 303ft 0kts
18-May-16 10:51 33.127505 -117.279972 216 303ft 2kts
18-May-16 10:52 33.127672 -117.278358 78 303ft 6kts
18-May-16 10:53 33.127335 -117.276626 168 303ft 7kts
18-May-16 10:54 33.126963 -117.276814 240 303ft 1kts
18-May-16 10:55 33.126938 -117.276860 231 303ft 0kts
18-May-16 10:56 33.126937 -117.276861 231 303ft 0kts

Navigation Log

Ident Type
Flight plan parsing failed, navigation log unavailable